FIN1PM EFHK-EKCH
Flight info
| Callsign | FIN1PM |
|---|---|
| Flight time | 1h 17m |
| Altitude | 40000 |
| Route | NUNTO Y369 REKDO DCT KOSKA DCT KOTAM L990 EKRAL P605 TIDVU |
| Aircraft | A359/H-SDE2E3GHIJ3J4J5LM1ORWXY/LB1D1 |
Departure
| Time | 2026-04-23 19:28 |
|---|---|
| Airport | Helsinki Vantaa Airport (EFHK) |
Arrival
| Time | 2026-04-23 20:45 |
|---|---|
| Airport | Copenhagen Kastrup Airport (EKCH) |
| Time | Latitude | Longitude | Altitude | Speed | Heading |
|---|---|---|---|---|---|
| 2026-04-23 18:51 | 60.31301 | 24.95620 | 168 ft | 0 kts | 317° |
| 2026-04-23 19:12 | 60.31294 | 24.95634 | 168 ft | 4 kts | 316° |
| 2026-04-23 19:12 | 60.31274 | 24.95672 | 168 ft | 4 kts | 314° |
| 2026-04-23 19:12 | 60.31257 | 24.95712 | 168 ft | 4 kts | 306° |
| 2026-04-23 19:13 | 60.31245 | 24.95757 | 168 ft | 4 kts | 270° |
| 2026-04-23 19:13 | 60.31253 | 24.95794 | 168 ft | 4 kts | 227° |
| 2026-04-23 19:13 | 60.31271 | 24.95834 | 168 ft | 4 kts | 227° |
| 2026-04-23 19:13 | 60.31290 | 24.95874 | 168 ft | 4 kts | 227° |
| 2026-04-23 19:14 | 60.31308 | 24.95914 | 168 ft | 4 kts | 227° |
| 2026-04-23 19:14 | 60.31321 | 24.95944 | 168 ft | 0 kts | 227° |
| 2026-04-23 19:14 | 60.31314 | 24.95927 | 168 ft | 4 kts | 227° |
| 2026-04-23 19:14 | 60.31309 | 24.95918 | 168 ft | 0 kts | 227° |
| 2026-04-23 19:15 | 60.31309 | 24.95917 | 168 ft | 0 kts | 227° |
| 2026-04-23 19:20 | 60.31299 | 24.95894 | 168 ft | 7 kts | 227° |
| 2026-04-23 19:21 | 60.31246 | 24.95779 | 168 ft | 15 kts | 227° |
| 2026-04-23 19:21 | 60.31082 | 24.95465 | 168 ft | 16 kts | 227° |
| 2026-04-23 19:21 | 60.31010 | 24.95302 | 168 ft | 14 kts | 228° |
| 2026-04-23 19:22 | 60.31021 | 24.95158 | 168 ft | 11 kts | 312° |
| 2026-04-23 19:22 | 60.31082 | 24.95046 | 168 ft | 10 kts | 320° |
| 2026-04-23 19:22 | 60.31191 | 24.94884 | 168 ft | 15 kts | 317° |
| 2026-04-23 19:23 | 60.31245 | 24.94782 | 168 ft | 17 kts | 317° |
| 2026-04-23 19:23 | 60.31308 | 24.94643 | 168 ft | 9 kts | 283° |
| 2026-04-23 19:23 | 60.31281 | 24.94534 | 168 ft | 12 kts | 226° |
| 2026-04-23 19:24 | 60.31137 | 24.94216 | 168 ft | 18 kts | 227° |
| 2026-04-23 19:24 | 60.31061 | 24.94046 | 168 ft | 15 kts | 228° |
| 2026-04-23 19:24 | 60.31102 | 24.93722 | 167 ft | 12 kts | 321° |
| 2026-04-23 19:25 | 60.31195 | 24.93780 | 168 ft | 0 kts | 47° |
| 2026-04-23 19:27 | 60.32289 | 24.96183 | 239 ft | 167 kts | 46° |
| 2026-04-23 19:28 | 60.33715 | 24.99445 | 2026 ft | 150 kts | 45° |
| 2026-04-23 19:28 | 60.35153 | 25.02634 | 3364 ft | 160 kts | 41° |
| 2026-04-23 19:29 | 60.35982 | 25.04383 | 3690 ft | 185 kts | 42° |
| 2026-04-23 19:29 | 60.38051 | 25.08859 | 4245 ft | 246 kts | 44° |
| 2026-04-23 19:30 | 60.40827 | 25.12805 | 5941 ft | 249 kts | 6° |
| 2026-04-23 19:30 | 60.42568 | 25.13025 | 6885 ft | 252 kts | 359° |
| 2026-04-23 19:30 | 60.45943 | 25.11678 | 9106 ft | 249 kts | 333° |
| 2026-04-23 19:31 | 60.47280 | 25.09415 | 10139 ft | 256 kts | 313° |
| 2026-04-23 19:31 | 60.48088 | 25.06059 | 10648 ft | 287 kts | 288° |
| 2026-04-23 19:31 | 60.48011 | 25.01782 | 11091 ft | 323 kts | 262° |
| 2026-04-23 19:31 | 60.47189 | 24.97400 | 11828 ft | 341 kts | 251° |
| 2026-04-23 19:32 | 60.46017 | 24.93121 | 12671 ft | 352 kts | 246° |
| 2026-04-23 19:32 | 60.44702 | 24.88868 | 13510 ft | 359 kts | 245° |
| 2026-04-23 19:32 | 60.43350 | 24.84553 | 14261 ft | 365 kts | 246° |
| 2026-04-23 19:32 | 60.42014 | 24.80154 | 15028 ft | 369 kts | 247° |
| 2026-04-23 19:33 | 60.40703 | 24.75663 | 15818 ft | 372 kts | 249° |
| 2026-04-23 19:33 | 60.39408 | 24.71085 | 16591 ft | 375 kts | 250° |
| 2026-04-23 19:33 | 60.36837 | 24.61767 | 18214 ft | 384 kts | 251° |
| 2026-04-23 19:34 | 60.35536 | 24.57017 | 18902 ft | 389 kts | 251° |
| 2026-04-23 19:34 | 60.34214 | 24.52195 | 19575 ft | 395 kts | 251° |
| 2026-04-23 19:34 | 60.31495 | 24.42353 | 20917 ft | 407 kts | 251° |
| 2026-04-23 19:35 | 60.30116 | 24.37395 | 21591 ft | 412 kts | 251° |
| 2026-04-23 19:35 | 60.28700 | 24.32318 | 22231 ft | 418 kts | 251° |
| 2026-04-23 19:35 | 60.27264 | 24.27178 | 22844 ft | 424 kts | 251° |
| 2026-04-23 19:35 | 60.25800 | 24.21956 | 23498 ft | 430 kts | 251° |
| 2026-04-23 19:36 | 60.24320 | 24.16693 | 24061 ft | 434 kts | 252° |
| 2026-04-23 19:36 | 60.22825 | 24.11394 | 24642 ft | 438 kts | 252° |
| 2026-04-23 19:36 | 60.21311 | 24.06037 | 25229 ft | 441 kts | 252° |
| 2026-04-23 19:36 | 60.19785 | 24.00651 | 25791 ft | 444 kts | 252° |
| 2026-04-23 19:37 | 60.18249 | 23.95245 | 26385 ft | 447 kts | 252° |
| 2026-04-23 19:37 | 60.16698 | 23.89786 | 26933 ft | 451 kts | 252° |
| 2026-04-23 19:37 | 60.15137 | 23.84307 | 27521 ft | 454 kts | 252° |
| 2026-04-23 19:37 | 60.13558 | 23.78775 | 28068 ft | 458 kts | 252° |
| 2026-04-23 19:38 | 60.11966 | 23.73210 | 28628 ft | 462 kts | 252° |
| 2026-04-23 19:38 | 60.10359 | 23.67611 | 29171 ft | 465 kts | 252° |
| 2026-04-23 19:38 | 60.08738 | 23.61972 | 29590 ft | 470 kts | 252° |
| 2026-04-23 19:38 | 60.07115 | 23.56339 | 30022 ft | 475 kts | 252° |
| 2026-04-23 19:39 | 60.05454 | 23.50598 | 30437 ft | 477 kts | 251° |
| 2026-04-23 19:39 | 60.03784 | 23.44847 | 30829 ft | 479 kts | 251° |
| 2026-04-23 19:39 | 60.02148 | 23.39224 | 31182 ft | 482 kts | 251° |
| 2026-04-23 19:39 | 60.00453 | 23.33412 | 31544 ft | 485 kts | 251° |
| 2026-04-23 19:40 | 59.98748 | 23.27577 | 31901 ft | 487 kts | 251° |
| 2026-04-23 19:40 | 59.97030 | 23.21713 | 32260 ft | 490 kts | 251° |
| 2026-04-23 19:40 | 59.95300 | 23.15821 | 32601 ft | 492 kts | 250° |
| 2026-04-23 19:40 | 59.93561 | 23.09910 | 32936 ft | 495 kts | 250° |
| 2026-04-23 19:41 | 59.91811 | 23.03980 | 33262 ft | 498 kts | 250° |
| 2026-04-23 19:41 | 59.90048 | 22.98024 | 33556 ft | 498 kts | 249° |
| 2026-04-23 19:41 | 59.88284 | 22.92085 | 33943 ft | 499 kts | 249° |
| 2026-04-23 19:41 | 59.86509 | 22.86119 | 34207 ft | 501 kts | 249° |
| 2026-04-23 19:42 | 59.84726 | 22.80137 | 34465 ft | 504 kts | 249° |
| 2026-04-23 19:42 | 59.82937 | 22.74156 | 34811 ft | 503 kts | 249° |
| 2026-04-23 19:42 | 59.81145 | 22.68186 | 35197 ft | 502 kts | 248° |
| 2026-04-23 19:42 | 59.79354 | 22.62233 | 35564 ft | 502 kts | 248° |
| 2026-04-23 19:43 | 59.77562 | 22.56290 | 35917 ft | 501 kts | 248° |
| 2026-04-23 19:43 | 59.75770 | 22.50357 | 36268 ft | 501 kts | 248° |
| 2026-04-23 19:43 | 59.74000 | 22.44511 | 36613 ft | 501 kts | 248° |
| 2026-04-23 19:43 | 59.72202 | 22.38589 | 36945 ft | 501 kts | 247° |
| 2026-04-23 19:44 | 59.70401 | 22.32670 | 37293 ft | 501 kts | 247° |
| 2026-04-23 19:44 | 59.68601 | 22.26771 | 37620 ft | 500 kts | 247° |
| 2026-04-23 19:44 | 59.66798 | 22.20874 | 37954 ft | 500 kts | 247° |
| 2026-04-23 19:44 | 59.64991 | 22.14984 | 38268 ft | 500 kts | 246° |
| 2026-04-23 19:45 | 59.63186 | 22.09112 | 38573 ft | 499 kts | 246° |
| 2026-04-23 19:45 | 59.61378 | 22.03247 | 38761 ft | 499 kts | 246° |
| 2026-04-23 19:45 | 59.59592 | 21.97466 | 39036 ft | 498 kts | 246° |
| 2026-04-23 19:45 | 59.57791 | 21.91656 | 39305 ft | 497 kts | 246° |
| 2026-04-23 19:46 | 59.55981 | 21.85826 | 39486 ft | 497 kts | 246° |
| 2026-04-23 19:46 | 59.54172 | 21.80015 | 39688 ft | 497 kts | 245° |
| 2026-04-23 19:46 | 59.52361 | 21.74209 | 39871 ft | 498 kts | 245° |
| 2026-04-23 19:47 | 59.49329 | 21.64518 | 39932 ft | 499 kts | 245° |
| 2026-04-23 19:47 | 59.45063 | 21.50970 | 39936 ft | 498 kts | 245° |
| 2026-04-23 19:48 | 59.41402 | 21.39401 | 39943 ft | 499 kts | 245° |
| 2026-04-23 19:48 | 59.37731 | 21.27857 | 39941 ft | 499 kts | 245° |
| 2026-04-23 19:49 | 59.34046 | 21.16323 | 39944 ft | 499 kts | 245° |
| 2026-04-23 19:49 | 59.30352 | 21.04819 | 39916 ft | 499 kts | 245° |
| 2026-04-23 19:50 | 59.26678 | 20.93437 | 39957 ft | 498 kts | 244° |
| 2026-04-23 19:50 | 59.22970 | 20.82002 | 39958 ft | 497 kts | 244° |
| 2026-04-23 19:51 | 59.19248 | 20.70620 | 39951 ft | 499 kts | 243° |
| 2026-04-23 19:51 | 59.14829 | 20.60016 | 39955 ft | 506 kts | 235° |
| 2026-04-23 19:52 | 59.10136 | 20.49778 | 39965 ft | 507 kts | 234° |
| 2026-04-23 19:52 | 59.05386 | 20.39602 | 39965 ft | 508 kts | 234° |
| 2026-04-23 19:53 | 59.00634 | 20.29432 | 39973 ft | 508 kts | 234° |
| 2026-04-23 19:53 | 58.95886 | 20.19276 | 39976 ft | 508 kts | 234° |
| 2026-04-23 19:54 | 58.91168 | 20.09216 | 39979 ft | 508 kts | 234° |
| 2026-04-23 19:54 | 58.86410 | 19.99116 | 39947 ft | 508 kts | 234° |
| 2026-04-23 19:55 | 58.81637 | 19.89031 | 39982 ft | 508 kts | 233° |
| 2026-04-23 19:55 | 58.76868 | 19.78999 | 39986 ft | 507 kts | 233° |
| 2026-04-23 19:56 | 58.72082 | 19.68974 | 39986 ft | 507 kts | 233° |
| 2026-04-23 19:56 | 58.67292 | 19.58984 | 39966 ft | 508 kts | 233° |
| 2026-04-23 19:57 | 58.62502 | 19.49037 | 39991 ft | 508 kts | 233° |
| 2026-04-23 19:57 | 58.57691 | 19.39091 | 39993 ft | 508 kts | 233° |
| 2026-04-23 19:58 | 58.52898 | 19.29226 | 39995 ft | 508 kts | 233° |
| 2026-04-23 19:58 | 58.48069 | 19.19331 | 39999 ft | 508 kts | 233° |
| 2026-04-23 19:59 | 58.43233 | 19.09461 | 39989 ft | 509 kts | 232° |
| 2026-04-23 19:59 | 58.38385 | 18.99610 | 40000 ft | 509 kts | 232° |
| 2026-04-23 20:00 | 58.33529 | 18.89786 | 39977 ft | 508 kts | 232° |
| 2026-04-23 20:00 | 58.28721 | 18.80103 | 40005 ft | 505 kts | 232° |
| 2026-04-23 20:01 | 58.23893 | 18.70420 | 40006 ft | 504 kts | 232° |
| 2026-04-23 20:01 | 58.19060 | 18.60763 | 40008 ft | 504 kts | 232° |
| 2026-04-23 20:02 | 58.14410 | 18.51515 | 40011 ft | 502 kts | 232° |
| 2026-04-23 20:02 | 58.09588 | 18.41961 | 40016 ft | 502 kts | 232° |
| 2026-04-23 20:03 | 58.04759 | 18.32431 | 40019 ft | 502 kts | 232° |
| 2026-04-23 20:03 | 57.99943 | 18.22969 | 40000 ft | 502 kts | 232° |
| 2026-04-23 20:04 | 57.95103 | 18.13502 | 40015 ft | 501 kts | 232° |
| 2026-04-23 20:04 | 57.90262 | 18.04069 | 40015 ft | 500 kts | 232° |
| 2026-04-23 20:05 | 57.86224 | 17.96230 | 40017 ft | 500 kts | 232° |
| 2026-04-23 20:05 | 57.80584 | 17.85327 | 40019 ft | 500 kts | 231° |
| 2026-04-23 20:06 | 57.75723 | 17.75973 | 40024 ft | 500 kts | 232° |
| 2026-04-23 20:06 | 57.70863 | 17.66662 | 40031 ft | 499 kts | 232° |
| 2026-04-23 20:07 | 57.66037 | 17.57448 | 40032 ft | 498 kts | 231° |
| 2026-04-23 20:07 | 57.61181 | 17.48216 | 40031 ft | 498 kts | 231° |
| 2026-04-23 20:08 | 57.56315 | 17.39002 | 40036 ft | 498 kts | 231° |
| 2026-04-23 20:08 | 57.51439 | 17.29808 | 40034 ft | 498 kts | 231° |
| 2026-04-23 20:09 | 57.46557 | 17.20637 | 40036 ft | 499 kts | 231° |
| 2026-04-23 20:09 | 57.41667 | 17.11490 | 40043 ft | 498 kts | 231° |
| 2026-04-23 20:10 | 57.37592 | 17.03897 | 40039 ft | 499 kts | 231° |
| 2026-04-23 20:10 | 57.31900 | 16.93330 | 40050 ft | 499 kts | 231° |
| 2026-04-23 20:11 | 57.27816 | 16.85780 | 40040 ft | 498 kts | 231° |
| 2026-04-23 20:11 | 57.22912 | 16.76749 | 40053 ft | 497 kts | 231° |
| 2026-04-23 20:12 | 57.18009 | 16.67752 | 40051 ft | 497 kts | 231° |
| 2026-04-23 20:12 | 57.13100 | 16.58781 | 40054 ft | 497 kts | 230° |
| 2026-04-23 20:13 | 57.08189 | 16.49839 | 40051 ft | 497 kts | 230° |
| 2026-04-23 20:13 | 57.03300 | 16.40975 | 40056 ft | 496 kts | 230° |
| 2026-04-23 20:14 | 56.98379 | 16.32089 | 40055 ft | 496 kts | 230° |
| 2026-04-23 20:14 | 56.93447 | 16.23215 | 40056 ft | 496 kts | 230° |
| 2026-04-23 20:15 | 56.88513 | 16.14374 | 40053 ft | 496 kts | 230° |
| 2026-04-23 20:15 | 56.83576 | 16.05562 | 40053 ft | 495 kts | 230° |
| 2026-04-23 20:16 | 56.78671 | 15.96842 | 40057 ft | 495 kts | 230° |
| 2026-04-23 20:16 | 56.73743 | 15.88112 | 40068 ft | 493 kts | 230° |
| 2026-04-23 20:17 | 56.68820 | 15.79426 | 40066 ft | 492 kts | 230° |
| 2026-04-23 20:17 | 56.63896 | 15.70772 | 40065 ft | 491 kts | 230° |
| 2026-04-23 20:18 | 56.58982 | 15.62169 | 40075 ft | 490 kts | 230° |
| 2026-04-23 20:18 | 56.54096 | 15.53645 | 40064 ft | 490 kts | 230° |
| 2026-04-23 20:19 | 56.49188 | 15.45119 | 39701 ft | 486 kts | 230° |
| 2026-04-23 20:19 | 56.46738 | 15.40872 | 38878 ft | 490 kts | 230° |
| 2026-04-23 20:19 | 56.44263 | 15.36585 | 37934 ft | 495 kts | 230° |
| 2026-04-23 20:19 | 56.41772 | 15.32276 | 37137 ft | 496 kts | 230° |
| 2026-04-23 20:20 | 56.39273 | 15.27970 | 36416 ft | 496 kts | 230° |
| 2026-04-23 20:20 | 56.36772 | 15.23669 | 35679 ft | 498 kts | 230° |
| 2026-04-23 20:20 | 56.34453 | 15.19689 | 35060 ft | 497 kts | 229° |
| 2026-04-23 20:20 | 56.31942 | 15.15391 | 34508 ft | 495 kts | 229° |
| 2026-04-23 20:21 | 56.29447 | 15.11128 | 33921 ft | 493 kts | 229° |
| 2026-04-23 20:21 | 56.26967 | 15.06898 | 33297 ft | 490 kts | 229° |
| 2026-04-23 20:21 | 56.24521 | 15.02734 | 32753 ft | 487 kts | 229° |
| 2026-04-23 20:21 | 56.22059 | 14.98551 | 32199 ft | 483 kts | 229° |
| 2026-04-23 20:22 | 56.19620 | 14.94411 | 31621 ft | 480 kts | 228° |
| 2026-04-23 20:22 | 56.17200 | 14.90310 | 31059 ft | 477 kts | 228° |
| 2026-04-23 20:22 | 56.14792 | 14.86231 | 30475 ft | 475 kts | 227° |
| 2026-04-23 20:22 | 56.12673 | 14.81893 | 30030 ft | 463 kts | 237° |
| 2026-04-23 20:23 | 56.10727 | 14.77337 | 29486 ft | 458 kts | 238° |
| 2026-04-23 20:23 | 56.08999 | 14.73144 | 28981 ft | 453 kts | 239° |
| 2026-04-23 20:23 | 56.07134 | 14.68525 | 28423 ft | 450 kts | 239° |
| 2026-04-23 20:23 | 56.05342 | 14.64048 | 27868 ft | 447 kts | 239° |
| 2026-04-23 20:24 | 56.03537 | 14.59536 | 27306 ft | 444 kts | 239° |
| 2026-04-23 20:24 | 56.01742 | 14.55064 | 26737 ft | 442 kts | 239° |
| 2026-04-23 20:24 | 55.99946 | 14.50608 | 26168 ft | 440 kts | 239° |
| 2026-04-23 20:24 | 55.98153 | 14.46180 | 25588 ft | 439 kts | 239° |
| 2026-04-23 20:25 | 55.96358 | 14.41762 | 25001 ft | 437 kts | 239° |
| 2026-04-23 20:25 | 55.94572 | 14.37378 | 24393 ft | 437 kts | 239° |
| 2026-04-23 20:25 | 55.92780 | 14.32989 | 23813 ft | 436 kts | 239° |
| 2026-04-23 20:25 | 55.90993 | 14.28619 | 23156 ft | 435 kts | 239° |
| 2026-04-23 20:26 | 55.89210 | 14.24271 | 22483 ft | 433 kts | 239° |
| 2026-04-23 20:26 | 55.87442 | 14.19968 | 21905 ft | 429 kts | 239° |
| 2026-04-23 20:26 | 55.85685 | 14.15700 | 21308 ft | 426 kts | 239° |
| 2026-04-23 20:26 | 55.83937 | 14.11459 | 20701 ft | 423 kts | 239° |
| 2026-04-23 20:27 | 55.82223 | 14.07305 | 20100 ft | 421 kts | 239° |
| 2026-04-23 20:27 | 55.80495 | 14.03125 | 19530 ft | 418 kts | 239° |
| 2026-04-23 20:27 | 55.78743 | 13.98995 | 18934 ft | 419 kts | 235° |
| 2026-04-23 20:27 | 55.76599 | 13.95452 | 18347 ft | 424 kts | 221° |
| 2026-04-23 20:28 | 55.74161 | 13.92465 | 17707 ft | 423 kts | 217° |
| 2026-04-23 20:28 | 55.71698 | 13.89649 | 17119 ft | 419 kts | 217° |
| 2026-04-23 20:28 | 55.69249 | 13.86892 | 16546 ft | 415 kts | 216° |
| 2026-04-23 20:28 | 55.66826 | 13.84184 | 15906 ft | 403 kts | 216° |
| 2026-04-23 20:29 | 55.64503 | 13.81599 | 15267 ft | 385 kts | 216° |
| 2026-04-23 20:29 | 55.62279 | 13.79127 | 14745 ft | 372 kts | 217° |
| 2026-04-23 20:29 | 55.60080 | 13.76677 | 14193 ft | 373 kts | 217° |
| 2026-04-23 20:29 | 55.57914 | 13.74268 | 13637 ft | 372 kts | 216° |
| 2026-04-23 20:30 | 55.55699 | 13.71811 | 13089 ft | 370 kts | 216° |
| 2026-04-23 20:30 | 55.51712 | 13.66568 | 12655 ft | 353 kts | 233° |
| 2026-04-23 20:30 | 55.50383 | 13.63009 | 12614 ft | 344 kts | 252° |
| 2026-04-23 20:31 | 55.49700 | 13.59037 | 12368 ft | 336 kts | 263° |
| 2026-04-23 20:31 | 55.49236 | 13.55014 | 12112 ft | 334 kts | 265° |
| 2026-04-23 20:31 | 55.48808 | 13.50990 | 11867 ft | 333 kts | 265° |
| 2026-04-23 20:31 | 55.48386 | 13.46989 | 11618 ft | 331 kts | 265° |
| 2026-04-23 20:32 | 55.47964 | 13.43001 | 11350 ft | 330 kts | 265° |
| 2026-04-23 20:32 | 55.47543 | 13.39036 | 11106 ft | 328 kts | 265° |
| 2026-04-23 20:32 | 55.47122 | 13.35083 | 10871 ft | 327 kts | 265° |
| 2026-04-23 20:32 | 55.46700 | 13.31147 | 10624 ft | 326 kts | 265° |
| 2026-04-23 20:33 | 55.46280 | 13.27226 | 10384 ft | 325 kts | 265° |
| 2026-04-23 20:33 | 55.45859 | 13.23316 | 10155 ft | 324 kts | 265° |
| 2026-04-23 20:33 | 55.45443 | 13.19493 | 10008 ft | 311 kts | 265° |
| 2026-04-23 20:33 | 55.45042 | 13.15843 | 9883 ft | 296 kts | 265° |
| 2026-04-23 20:34 | 55.44660 | 13.12360 | 9742 ft | 283 kts | 265° |
| 2026-04-23 20:34 | 55.44291 | 13.08953 | 9519 ft | 282 kts | 265° |
| 2026-04-23 20:34 | 55.43928 | 13.05593 | 9254 ft | 282 kts | 265° |
| 2026-04-23 20:34 | 55.43555 | 13.02172 | 9026 ft | 278 kts | 265° |
| 2026-04-23 20:35 | 55.43194 | 12.98876 | 8800 ft | 279 kts | 265° |
| 2026-04-23 20:35 | 55.42825 | 12.95513 | 8445 ft | 279 kts | 264° |
| 2026-04-23 20:35 | 55.42457 | 12.92167 | 8085 ft | 278 kts | 264° |
| 2026-04-23 20:35 | 55.42087 | 12.88831 | 7722 ft | 276 kts | 264° |
| 2026-04-23 20:36 | 55.41719 | 12.85518 | 7379 ft | 275 kts | 264° |
| 2026-04-23 20:36 | 55.41352 | 12.82225 | 6995 ft | 272 kts | 264° |
| 2026-04-23 20:36 | 55.40989 | 12.78970 | 6585 ft | 270 kts | 264° |
| 2026-04-23 20:36 | 55.40631 | 12.75721 | 6169 ft | 269 kts | 264° |
| 2026-04-23 20:37 | 55.40284 | 12.72497 | 5722 ft | 268 kts | 264° |
| 2026-04-23 20:37 | 55.39947 | 12.69282 | 5293 ft | 267 kts | 264° |
| 2026-04-23 20:37 | 55.39623 | 12.66120 | 5066 ft | 258 kts | 264° |
| 2026-04-23 20:37 | 55.39311 | 12.63078 | 4908 ft | 247 kts | 264° |
| 2026-04-23 20:38 | 55.39015 | 12.60197 | 4713 ft | 238 kts | 264° |
| 2026-04-23 20:38 | 55.38722 | 12.57362 | 4455 ft | 234 kts | 264° |
| 2026-04-23 20:38 | 55.38437 | 12.54565 | 4149 ft | 231 kts | 264° |
| 2026-04-23 20:38 | 55.38160 | 12.51791 | 3829 ft | 229 kts | 264° |
| 2026-04-23 20:39 | 55.38188 | 12.49050 | 3463 ft | 223 kts | 290° |
| 2026-04-23 20:39 | 55.38873 | 12.46893 | 3165 ft | 218 kts | 310° |
| 2026-04-23 20:39 | 55.39868 | 12.44904 | 2822 ft | 216 kts | 314° |
| 2026-04-23 20:39 | 55.40904 | 12.42978 | 2496 ft | 216 kts | 315° |
| 2026-04-23 20:40 | 55.42051 | 12.41314 | 2137 ft | 214 kts | 334° |
| 2026-04-23 20:40 | 55.43500 | 12.40904 | 2012 ft | 215 kts | 5° |
| 2026-04-23 20:40 | 55.44971 | 12.41473 | 1998 ft | 217 kts | 14° |
| 2026-04-23 20:40 | 55.46420 | 12.42223 | 1998 ft | 217 kts | 14° |
| 2026-04-23 20:41 | 55.47852 | 12.43089 | 1996 ft | 219 kts | 22° |
| 2026-04-23 20:41 | 55.49097 | 12.44635 | 2003 ft | 221 kts | 41° |
| 2026-04-23 20:41 | 55.50184 | 12.46513 | 1991 ft | 212 kts | 40° |
| 2026-04-23 20:41 | 55.51259 | 12.48115 | 2007 ft | 193 kts | 36° |
| 2026-04-23 20:42 | 55.52228 | 12.49575 | 1896 ft | 181 kts | 38° |
| 2026-04-23 20:42 | 55.53162 | 12.51021 | 1633 ft | 176 kts | 38° |
| 2026-04-23 20:42 | 55.54053 | 12.52396 | 1375 ft | 163 kts | 38° |
| 2026-04-23 20:42 | 55.54879 | 12.53665 | 1151 ft | 152 kts | 38° |
| 2026-04-23 20:43 | 55.55645 | 12.54845 | 948 ft | 141 kts | 38° |
| 2026-04-23 20:43 | 55.56355 | 12.55951 | 764 ft | 132 kts | 39° |
| 2026-04-23 20:43 | 55.57035 | 12.57013 | 622 ft | 130 kts | 39° |
| 2026-04-23 20:43 | 55.57730 | 12.58043 | 451 ft | 130 kts | 39° |
| 2026-04-23 20:44 | 55.58407 | 12.59096 | 283 ft | 130 kts | 40° |
| 2026-04-23 20:44 | 55.59084 | 12.60135 | 101 ft | 129 kts | 40° |
| 2026-04-23 20:44 | 55.59741 | 12.61152 | 29 ft | 115 kts | 41° |
| 2026-04-23 20:44 | 55.60256 | 12.61949 | 30 ft | 84 kts | 41° |
| 2026-04-23 20:45 | 55.60637 | 12.62539 | 33 ft | 64 kts | 41° |
| 2026-04-23 20:45 | 55.60953 | 12.63029 | 31 ft | 57 kts | 41° |
| 2026-04-23 20:45 | 55.61233 | 12.63461 | 33 ft | 50 kts | 41° |
| 2026-04-23 20:45 | 55.61483 | 12.63847 | 32 ft | 37 kts | 41° |
| 2026-04-23 20:46 | 55.61614 | 12.64049 | 33 ft | 12 kts | 39° |
| 2026-04-23 20:46 | 55.61700 | 12.64087 | 32 ft | 15 kts | 356° |
| 2026-04-23 20:46 | 55.61819 | 12.64074 | 30 ft | 19 kts | 356° |
| 2026-04-23 20:46 | 55.61949 | 12.64134 | 30 ft | 21 kts | 25° |
| 2026-04-23 20:47 | 55.62088 | 12.64250 | 30 ft | 23 kts | 25° |
| 2026-04-23 20:47 | 55.62234 | 12.64373 | 28 ft | 18 kts | 25° |
| 2026-04-23 20:47 | 55.62354 | 12.64431 | 30 ft | 17 kts | 15° |
| 2026-04-23 20:47 | 55.62432 | 12.64427 | 29 ft | 7 kts | 317° |
| 2026-04-23 20:48 | 55.62475 | 12.64326 | 30 ft | 11 kts | 309° |
| 2026-04-23 20:48 | 55.62530 | 12.64206 | 30 ft | 9 kts | 323° |
| 2026-04-23 20:48 | 55.62569 | 12.64216 | 30 ft | 8 kts | 33° |
| 2026-04-23 20:48 | 55.62599 | 12.64304 | 30 ft | 8 kts | 69° |
| 2026-04-23 20:49 | 55.62617 | 12.64379 | 30 ft | 7 kts | 67° |
| 2026-04-23 20:49 | 55.62621 | 12.64392 | 30 ft | 1 kts | 67° |
| 2026-04-23 20:49 | 55.62625 | 12.64412 | 30 ft | 1 kts | 67° |
| 2026-04-23 20:49 | 55.62626 | 12.64414 | 30 ft | 0 kts | 67° |